sensor_id;sensor_type;location;lat;lon;timestamp;P1;durP1;ratioP1;P2;durP2;ratioP2
35126;SDS011;21300;52.006;5.798;2023-03-01T00:01:13;4.22;;;2.33;;
35126;SDS011;21300;52.006;5.798;2023-03-01T00:03:44;4.18;;;3.00;;
35126;SDS011;21300;52.006;5.798;2023-03-01T00:06:10;4.88;;;3.10;;
35126;SDS011;21300;52.006;5.798;2023-03-01T00:08:36;3.88;;;2.88;;
35126;SDS011;21300;52.006;5.798;2023-03-01T00:11:03;5.80;;;2.97;;
35126;SDS011;21300;52.006;5.798;2023-03-01T00:13:29;3.30;;;2.70;;
35126;SDS011;21300;52.006;5.798;2023-03-01T00:15:55;3.47;;;2.88;;
35126;SDS011;21300;52.006;5.798;2023-03-01T00:18:21;4.07;;;2.90;;
35126;SDS011;21300;52.006;5.798;2023-03-01T00:20:51;4.75;;;2.92;;
35126;SDS011;21300;52.006;5.798;2023-03-01T00:23:20;5.13;;;3.40;;
35126;SDS011;21300;52.006;5.798;2023-03-01T00:25:47;4.35;;;3.10;;
35126;SDS011;21300;52.006;5.798;2023-03-01T00:28:13;5.47;;;3.08;;
35126;SDS011;21300;52.006;5.798;2023-03-01T00:30:38;4.45;;;3.38;;
35126;SDS011;21300;52.006;5.798;2023-03-01T00:33:04;5.43;;;3.28;;
35126;SDS011;21300;52.006;5.798;2023-03-01T00:35:31;4.78;;;3.53;;
35126;SDS011;21300;52.006;5.798;2023-03-01T00:37:57;4.93;;;3.00;;
35126;SDS011;21300;52.006;5.798;2023-03-01T00:40:23;6.57;;;2.88;;
35126;SDS011;21300;52.006;5.798;2023-03-01T00:42:49;4.78;;;3.25;;
35126;SDS011;21300;52.006;5.798;2023-03-01T00:45:15;5.45;;;3.20;;
35126;SDS011;21300;52.006;5.798;2023-03-01T00:47:41;4.82;;;3.28;;
35126;SDS011;21300;52.006;5.798;2023-03-01T00:50:07;6.35;;;3.60;;
35126;SDS011;21300;52.006;5.798;2023-03-01T00:52:34;5.88;;;3.47;;
35126;SDS011;21300;52.006;5.798;2023-03-01T00:54:59;5.65;;;3.22;;
35126;SDS011;21300;52.006;5.798;2023-03-01T00:57:25;5.28;;;3.40;;
35126;SDS011;21300;52.006;5.798;2023-03-01T00:59:50;5.70;;;3.53;;
35126;SDS011;21300;52.006;5.798;2023-03-01T01:02:17;4.55;;;3.38;;
35126;SDS011;21300;52.006;5.798;2023-03-01T01:04:44;6.15;;;3.42;;
35126;SDS011;21300;52.006;5.798;2023-03-01T01:07:09;4.82;;;3.50;;
35126;SDS011;21300;52.006;5.798;2023-03-01T01:09:35;4.47;;;2.90;;
35126;SDS011;21300;52.006;5.798;2023-03-01T01:12:01;7.90;;;3.67;;
35126;SDS011;21300;52.006;5.798;2023-03-01T01:14:27;4.35;;;3.33;;
35126;SDS011;21300;52.006;5.798;2023-03-01T01:16:53;4.47;;;3.53;;
35126;SDS011;21300;52.006;5.798;2023-03-01T01:19:19;6.53;;;3.38;;
35126;SDS011;21300;52.006;5.798;2023-03-01T01:21:46;5.35;;;3.58;;
35126;SDS011;21300;52.006;5.798;2023-03-01T01:24:13;4.35;;;3.40;;
35126;SDS011;21300;52.006;5.798;2023-03-01T01:26:39;6.80;;;3.67;;
35126;SDS011;21300;52.006;5.798;2023-03-01T01:29:05;5.95;;;3.83;;
35126;SDS011;21300;52.006;5.798;2023-03-01T01:31:32;4.70;;;3.55;;
35126;SDS011;21300;52.006;5.798;2023-03-01T01:33:59;4.63;;;3.28;;
35126;SDS011;21300;52.006;5.798;2023-03-01T01:36:26;4.70;;;2.97;;
35126;SDS011;21300;52.006;5.798;2023-03-01T01:38:52;6.05;;;3.72;;
35126;SDS011;21300;52.006;5.798;2023-03-01T01:41:19;4.32;;;3.25;;
35126;SDS011;21300;52.006;5.798;2023-03-01T01:43:46;4.28;;;3.33;;
35126;SDS011;21300;52.006;5.798;2023-03-01T01:46:32;4.60;;;3.20;;
35126;SDS011;21300;52.006;5.798;2023-03-01T01:49:04;5.05;;;3.28;;
35126;SDS011;21300;52.006;5.798;2023-03-01T01:51:50;8.52;;;3.97;;
35126;SDS011;21300;52.006;5.798;2023-03-01T01:54:22;7.90;;;3.47;;
35126;SDS011;21300;52.006;5.798;2023-03-01T01:56:56;5.80;;;3.80;;
35126;SDS011;21300;52.006;5.798;2023-03-01T01:59:26;5.88;;;3.70;;
35126;SDS011;21300;52.006;5.798;2023-03-01T02:01:56;8.00;;;3.63;;
35126;SDS011;21300;52.006;5.798;2023-03-01T02:04:24;5.57;;;3.83;;
35126;SDS011;21300;52.006;5.798;2023-03-01T02:06:55;6.68;;;3.92;;
35126;SDS011;21300;52.006;5.798;2023-03-01T02:09:26;7.53;;;4.18;;
35126;SDS011;21300;52.006;5.798;2023-03-01T02:11:52;6.60;;;3.95;;
35126;SDS011;21300;52.006;5.798;2023-03-01T02:14:18;6.03;;;3.78;;
35126;SDS011;21300;52.006;5.798;2023-03-01T02:16:44;4.65;;;3.35;;
35126;SDS011;21300;52.006;5.798;2023-03-01T02:19:18;6.95;;;3.88;;
35126;SDS011;21300;52.006;5.798;2023-03-01T02:21:57;5.95;;;4.00;;
35126;SDS011;21300;52.006;5.798;2023-03-01T02:27:31;8.43;;;4.47;;
35126;SDS011;21300;52.006;5.798;2023-03-01T02:30:03;6.28;;;4.22;;
35126;SDS011;21300;52.006;5.798;2023-03-01T02:32:30;6.80;;;4.28;;
35126;SDS011;21300;52.006;5.798;2023-03-01T02:34:56;6.53;;;4.40;;
35126;SDS011;21300;52.006;5.798;2023-03-01T02:37:22;7.88;;;4.80;;
35126;SDS011;21300;52.006;5.798;2023-03-01T02:39:58;5.00;;;3.53;;
35126;SDS011;21300;52.006;5.798;2023-03-01T02:42:31;5.05;;;3.75;;
35126;SDS011;21300;52.006;5.798;2023-03-01T02:45:00;6.10;;;4.22;;
35126;SDS011;21300;52.006;5.798;2023-03-01T02:47:26;7.28;;;4.40;;
35126;SDS011;21300;52.006;5.798;2023-03-01T02:49:51;7.15;;;4.25;;
35126;SDS011;21300;52.006;5.798;2023-03-01T02:52:26;6.97;;;4.50;;
35126;SDS011;21300;52.006;5.798;2023-03-01T02:55:20;8.20;;;4.72;;
35126;SDS011;21300;52.006;5.798;2023-03-01T02:57:46;8.32;;;4.80;;
35126;SDS011;21300;52.006;5.798;2023-03-01T03:00:23;7.65;;;4.60;;
35126;SDS011;21300;52.006;5.798;2023-03-01T03:02:53;7.88;;;4.28;;
35126;SDS011;21300;52.006;5.798;2023-03-01T03:05:29;7.35;;;4.15;;
35126;SDS011;21300;52.006;5.798;2023-03-01T03:07:55;6.33;;;4.10;;
35126;SDS011;21300;52.006;5.798;2023-03-01T03:10:24;5.88;;;4.30;;
35126;SDS011;21300;52.006;5.798;2023-03-01T03:13:17;6.15;;;4.30;;
35126;SDS011;21300;52.006;5.798;2023-03-01T03:15:42;6.22;;;4.30;;
35126;SDS011;21300;52.006;5.798;2023-03-01T03:18:10;6.65;;;4.40;;
35126;SDS011;21300;52.006;5.798;2023-03-01T03:20:38;6.70;;;4.40;;
35126;SDS011;21300;52.006;5.798;2023-03-01T03:23:05;6.00;;;4.43;;
35126;SDS011;21300;52.006;5.798;2023-03-01T03:25:31;6.50;;;4.15;;
35126;SDS011;21300;52.006;5.798;2023-03-01T03:28:15;5.83;;;3.90;;
35126;SDS011;21300;52.006;5.798;2023-03-01T03:30:42;6.35;;;4.20;;
35126;SDS011;21300;52.006;5.798;2023-03-01T03:33:09;5.43;;;4.03;;
35126;SDS011;21300;52.006;5.798;2023-03-01T03:35:40;7.45;;;4.43;;
35126;SDS011;21300;52.006;5.798;2023-03-01T03:38:09;7.07;;;4.28;;
35126;SDS011;21300;52.006;5.798;2023-03-01T03:40:41;9.55;;;5.03;;
35126;SDS011;21300;52.006;5.798;2023-03-01T03:43:36;7.50;;;4.70;;
35126;SDS011;21300;52.006;5.798;2023-03-01T03:46:03;6.55;;;4.32;;
35126;SDS011;21300;52.006;5.798;2023-03-01T03:48:33;6.53;;;4.75;;
35126;SDS011;21300;52.006;5.798;2023-03-01T03:51:13;5.85;;;4.18;;
35126;SDS011;21300;52.006;5.798;2023-03-01T03:53:40;7.47;;;4.85;;
35126;SDS011;21300;52.006;5.798;2023-03-01T03:56:06;6.47;;;5.32;;
35126;SDS011;21300;52.006;5.798;2023-03-01T03:58:33;6.78;;;4.22;;
35126;SDS011;21300;52.006;5.798;2023-03-01T04:00:59;6.68;;;4.70;;
35126;SDS011;21300;52.006;5.798;2023-03-01T04:03:26;7.78;;;4.20;;
35126;SDS011;21300;52.006;5.798;2023-03-01T04:05:52;8.95;;;4.55;;
35126;SDS011;21300;52.006;5.798;2023-03-01T04:08:19;6.57;;;4.30;;
35126;SDS011;21300;52.006;5.798;2023-03-01T04:10:46;6.00;;;4.07;;
35126;SDS011;21300;52.006;5.798;2023-03-01T04:13:15;7.20;;;4.47;;
35126;SDS011;21300;52.006;5.798;2023-03-01T04:15:44;7.80;;;4.65;;
35126;SDS011;21300;52.006;5.798;2023-03-01T04:18:14;9.13;;;4.63;;
35126;SDS011;21300;52.006;5.798;2023-03-01T04:20:40;6.63;;;4.40;;
35126;SDS011;21300;52.006;5.798;2023-03-01T04:25:52;5.63;;;3.38;;
35126;SDS011;21300;52.006;5.798;2023-03-01T04:28:26;7.05;;;4.78;;
35126;SDS011;21300;52.006;5.798;2023-03-01T04:31:01;5.65;;;3.95;;
35126;SDS011;21300;52.006;5.798;2023-03-01T04:33:56;6.63;;;4.55;;
35126;SDS011;21300;52.006;5.798;2023-03-01T04:36:27;7.13;;;4.82;;
35126;SDS011;21300;52.006;5.798;2023-03-01T04:38:54;5.22;;;3.78;;
35126;SDS011;21300;52.006;5.798;2023-03-01T04:41:21;6.78;;;4.25;;
35126;SDS011;21300;52.006;5.798;2023-03-01T04:43:48;8.70;;;4.60;;
35126;SDS011;21300;52.006;5.798;2023-03-01T04:46:15;6.97;;;4.95;;
35126;SDS011;21300;52.006;5.798;2023-03-01T04:48:43;6.80;;;4.57;;
35126;SDS011;21300;52.006;5.798;2023-03-01T04:51:10;7.57;;;4.82;;
35126;SDS011;21300;52.006;5.798;2023-03-01T04:53:39;6.55;;;4.45;;
35126;SDS011;21300;52.006;5.798;2023-03-01T04:56:05;6.57;;;4.15;;
35126;SDS011;21300;52.006;5.798;2023-03-01T04:58:32;5.90;;;4.45;;
35126;SDS011;21300;52.006;5.798;2023-03-01T05:00:57;8.60;;;4.82;;
35126;SDS011;21300;52.006;5.798;2023-03-01T05:03:23;8.23;;;4.93;;
35126;SDS011;21300;52.006;5.798;2023-03-01T05:05:49;6.60;;;4.68;;
35126;SDS011;21300;52.006;5.798;2023-03-01T05:08:16;6.57;;;4.88;;
35126;SDS011;21300;52.006;5.798;2023-03-01T05:10:48;9.18;;;4.95;;
35126;SDS011;21300;52.006;5.798;2023-03-01T05:13:15;7.97;;;4.45;;
35126;SDS011;21300;52.006;5.798;2023-03-01T05:15:46;7.57;;;4.95;;
35126;SDS011;21300;52.006;5.798;2023-03-01T05:18:13;7.07;;;5.10;;
35126;SDS011;21300;52.006;5.798;2023-03-01T05:20:39;7.32;;;5.00;;
35126;SDS011;21300;52.006;5.798;2023-03-01T05:23:04;8.55;;;5.28;;
35126;SDS011;21300;52.006;5.798;2023-03-01T05:25:31;8.55;;;5.15;;
35126;SDS011;21300;52.006;5.798;2023-03-01T05:28:02;6.65;;;4.93;;
35126;SDS011;21300;52.006;5.798;2023-03-01T05:30:31;7.07;;;4.35;;
35126;SDS011;21300;52.006;5.798;2023-03-01T05:32:58;8.73;;;4.80;;
35126;SDS011;21300;52.006;5.798;2023-03-01T05:35:24;7.07;;;5.18;;
35126;SDS011;21300;52.006;5.798;2023-03-01T05:37:50;6.60;;;5.05;;
35126;SDS011;21300;52.006;5.798;2023-03-01T05:40:18;6.90;;;4.28;;
35126;SDS011;21300;52.006;5.798;2023-03-01T05:42:46;9.57;;;5.13;;
35126;SDS011;21300;52.006;5.798;2023-03-01T05:45:15;10.43;;;5.15;;
35126;SDS011;21300;52.006;5.798;2023-03-01T05:47:43;8.35;;;4.80;;
35126;SDS011;21300;52.006;5.798;2023-03-01T05:50:28;9.98;;;5.07;;
35126;SDS011;21300;52.006;5.798;2023-03-01T05:52:58;7.32;;;4.88;;
35126;SDS011;21300;52.006;5.798;2023-03-01T05:55:26;8.40;;;5.50;;
35126;SDS011;21300;52.006;5.798;2023-03-01T05:57:51;8.13;;;5.35;;
35126;SDS011;21300;52.006;5.798;2023-03-01T06:00:18;9.63;;;5.03;;
35126;SDS011;21300;52.006;5.798;2023-03-01T06:02:44;7.90;;;5.05;;
35126;SDS011;21300;52.006;5.798;2023-03-01T06:05:11;7.78;;;5.40;;
35126;SDS011;21300;52.006;5.798;2023-03-01T06:07:37;7.43;;;4.68;;
35126;SDS011;21300;52.006;5.798;2023-03-01T06:10:04;6.95;;;4.90;;
35126;SDS011;21300;52.006;5.798;2023-03-01T06:12:33;6.57;;;5.43;;
35126;SDS011;21300;52.006;5.798;2023-03-01T06:15:00;8.55;;;5.65;;
35126;SDS011;21300;52.006;5.798;2023-03-01T06:17:26;10.05;;;5.40;;
35126;SDS011;21300;52.006;5.798;2023-03-01T06:19:54;9.05;;;5.55;;
35126;SDS011;21300;52.006;5.798;2023-03-01T06:22:20;11.15;;;5.88;;
35126;SDS011;21300;52.006;5.798;2023-03-01T06:24:46;9.25;;;5.60;;
35126;SDS011;21300;52.006;5.798;2023-03-01T06:27:11;9.00;;;5.65;;
35126;SDS011;21300;52.006;5.798;2023-03-01T06:29:37;8.70;;;5.20;;
35126;SDS011;21300;52.006;5.798;2023-03-01T06:32:03;8.48;;;5.47;;
35126;SDS011;21300;52.006;5.798;2023-03-01T06:34:29;9.57;;;5.28;;
35126;SDS011;21300;52.006;5.798;2023-03-01T06:36:54;9.98;;;5.85;;
35126;SDS011;21300;52.006;5.798;2023-03-01T06:39:20;11.05;;;6.32;;
35126;SDS011;21300;52.006;5.798;2023-03-01T06:41:45;7.72;;;5.45;;
35126;SDS011;21300;52.006;5.798;2023-03-01T06:44:11;12.77;;;6.53;;
35126;SDS011;21300;52.006;5.798;2023-03-01T06:46:37;11.82;;;6.32;;
35126;SDS011;21300;52.006;5.798;2023-03-01T06:49:04;7.55;;;5.68;;
35126;SDS011;21300;52.006;5.798;2023-03-01T06:51:32;9.82;;;5.60;;
35126;SDS011;21300;52.006;5.798;2023-03-01T06:53:58;9.70;;;6.43;;
35126;SDS011;21300;52.006;5.798;2023-03-01T06:56:23;8.50;;;5.75;;
35126;SDS011;21300;52.006;5.798;2023-03-01T06:58:49;11.35;;;6.25;;
35126;SDS011;21300;52.006;5.798;2023-03-01T07:01:14;9.43;;;5.93;;
35126;SDS011;21300;52.006;5.798;2023-03-01T07:03:41;15.70;;;6.65;;
35126;SDS011;21300;52.006;5.798;2023-03-01T07:06:09;10.93;;;6.03;;
35126;SDS011;21300;52.006;5.798;2023-03-01T07:08:35;8.60;;;6.03;;
35126;SDS011;21300;52.006;5.798;2023-03-01T07:11:01;10.20;;;6.28;;
35126;SDS011;21300;52.006;5.798;2023-03-01T07:13:28;9.32;;;6.38;;
35126;SDS011;21300;52.006;5.798;2023-03-01T07:15:54;9.02;;;6.13;;
35126;SDS011;21300;52.006;5.798;2023-03-01T07:18:20;10.55;;;5.97;;
35126;SDS011;21300;52.006;5.798;2023-03-01T07:20:46;10.00;;;5.78;;
35126;SDS011;21300;52.006;5.798;2023-03-01T07:23:12;12.85;;;6.25;;
35126;SDS011;21300;52.006;5.798;2023-03-01T07:25:38;9.73;;;6.28;;
35126;SDS011;21300;52.006;5.798;2023-03-01T07:28:04;9.52;;;6.18;;
35126;SDS011;21300;52.006;5.798;2023-03-01T07:30:30;11.85;;;7.18;;
35126;SDS011;21300;52.006;5.798;2023-03-01T07:32:57;11.07;;;6.30;;
35126;SDS011;21300;52.006;5.798;2023-03-01T07:35:23;8.38;;;5.82;;
35126;SDS011;21300;52.006;5.798;2023-03-01T07:37:50;12.43;;;7.03;;
35126;SDS011;21300;52.006;5.798;2023-03-01T07:40:16;12.48;;;7.25;;
35126;SDS011;21300;52.006;5.798;2023-03-01T07:42:42;12.52;;;7.10;;
35126;SDS011;21300;52.006;5.798;2023-03-01T07:45:08;11.23;;;6.70;;
35126;SDS011;21300;52.006;5.798;2023-03-01T07:47:34;12.88;;;7.22;;
35126;SDS011;21300;52.006;5.798;2023-03-01T07:50:00;9.38;;;6.50;;
35126;SDS011;21300;52.006;5.798;2023-03-01T07:52:27;14.50;;;7.25;;
35126;SDS011;21300;52.006;5.798;2023-03-01T07:54:53;11.77;;;7.68;;
35126;SDS011;21300;52.006;5.798;2023-03-01T07:57:19;10.75;;;6.35;;
35126;SDS011;21300;52.006;5.798;2023-03-01T07:59:45;12.88;;;6.63;;
35126;SDS011;21300;52.006;5.798;2023-03-01T08:02:11;9.25;;;6.70;;
35126;SDS011;21300;52.006;5.798;2023-03-01T08:04:37;11.98;;;7.35;;
35126;SDS011;21300;52.006;5.798;2023-03-01T08:07:04;12.68;;;7.65;;
35126;SDS011;21300;52.006;5.798;2023-03-01T08:09:30;13.82;;;7.50;;
35126;SDS011;21300;52.006;5.798;2023-03-01T08:11:57;13.20;;;7.65;;
35126;SDS011;21300;52.006;5.798;2023-03-01T08:14:26;13.43;;;7.97;;
35126;SDS011;21300;52.006;5.798;2023-03-01T08:16:52;12.85;;;7.72;;
35126;SDS011;21300;52.006;5.798;2023-03-01T08:19:18;12.90;;;7.70;;
35126;SDS011;21300;52.006;5.798;2023-03-01T08:21:44;12.27;;;7.88;;
35126;SDS011;21300;52.006;5.798;2023-03-01T08:24:10;11.95;;;7.88;;
35126;SDS011;21300;52.006;5.798;2023-03-01T08:26:36;13.50;;;8.55;;
35126;SDS011;21300;52.006;5.798;2023-03-01T08:29:02;14.88;;;8.23;;
35126;SDS011;21300;52.006;5.798;2023-03-01T08:31:33;18.92;;;8.77;;
35126;SDS011;21300;52.006;5.798;2023-03-01T08:34:01;14.05;;;9.07;;
35126;SDS011;21300;52.006;5.798;2023-03-01T08:36:29;13.98;;;9.02;;
35126;SDS011;21300;52.006;5.798;2023-03-01T08:38:56;13.80;;;8.55;;
35126;SDS011;21300;52.006;5.798;2023-03-01T08:41:22;15.25;;;8.40;;
35126;SDS011;21300;52.006;5.798;2023-03-01T08:43:48;13.98;;;9.20;;
35126;SDS011;21300;52.006;5.798;2023-03-01T08:46:15;11.38;;;7.00;;
35126;SDS011;21300;52.006;5.798;2023-03-01T08:48:41;16.02;;;9.43;;
35126;SDS011;21300;52.006;5.798;2023-03-01T08:53:34;13.27;;;8.30;;
35126;SDS011;21300;52.006;5.798;2023-03-01T08:56:00;14.90;;;8.80;;
35126;SDS011;21300;52.006;5.798;2023-03-01T08:58:27;13.38;;;8.20;;
35126;SDS011;21300;52.006;5.798;2023-03-01T09:00:53;13.40;;;8.18;;
35126;SDS011;21300;52.006;5.798;2023-03-01T09:03:21;15.02;;;8.98;;
35126;SDS011;21300;52.006;5.798;2023-03-01T09:05:47;13.98;;;8.48;;
35126;SDS011;21300;52.006;5.798;2023-03-01T09:08:15;14.60;;;8.75;;
35126;SDS011;21300;52.006;5.798;2023-03-01T09:10:41;11.30;;;7.70;;
35126;SDS011;21300;52.006;5.798;2023-03-01T09:13:07;12.73;;;7.38;;
35126;SDS011;21300;52.006;5.798;2023-03-01T09:15:33;13.18;;;7.10;;
35126;SDS011;21300;52.006;5.798;2023-03-01T09:17:59;12.30;;;6.85;;
35126;SDS011;21300;52.006;5.798;2023-03-01T09:20:25;12.23;;;6.53;;
35126;SDS011;21300;52.006;5.798;2023-03-01T09:22:51;13.45;;;6.05;;
35126;SDS011;21300;52.006;5.798;2023-03-01T09:25:17;12.05;;;6.22;;
35126;SDS011;21300;52.006;5.798;2023-03-01T09:27:43;11.48;;;6.45;;
35126;SDS011;21300;52.006;5.798;2023-03-01T09:30:09;11.90;;;6.75;;
35126;SDS011;21300;52.006;5.798;2023-03-01T09:32:35;8.77;;;5.05;;
35126;SDS011;21300;52.006;5.798;2023-03-01T09:35:01;10.20;;;5.20;;
35126;SDS011;21300;52.006;5.798;2023-03-01T09:37:34;8.85;;;4.60;;
35126;SDS011;21300;52.006;5.798;2023-03-01T09:40:00;9.65;;;4.60;;
35126;SDS011;21300;52.006;5.798;2023-03-01T09:42:28;10.88;;;5.57;;
35126;SDS011;21300;52.006;5.798;2023-03-01T09:44:58;9.32;;;5.10;;
35126;SDS011;21300;52.006;5.798;2023-03-01T09:47:29;9.77;;;4.57;;
35126;SDS011;21300;52.006;5.798;2023-03-01T09:52:30;8.57;;;4.03;;
35126;SDS011;21300;52.006;5.798;2023-03-01T09:54:59;7.80;;;4.38;;
35126;SDS011;21300;52.006;5.798;2023-03-01T09:57:30;7.80;;;5.18;;
35126;SDS011;21300;52.006;5.798;2023-03-01T10:00:14;9.57;;;4.35;;
35126;SDS011;21300;52.006;5.798;2023-03-01T10:02:48;6.35;;;4.05;;
35126;SDS011;21300;52.006;5.798;2023-03-01T10:05:27;8.85;;;4.50;;
35126;SDS011;21300;52.006;5.798;2023-03-01T10:07:59;8.40;;;4.78;;
35126;SDS011;21300;52.006;5.798;2023-03-01T10:10:32;7.55;;;4.25;;
35126;SDS011;21300;52.006;5.798;2023-03-01T10:13:00;5.85;;;3.90;;
35126;SDS011;21300;52.006;5.798;2023-03-01T10:15:34;6.72;;;4.32;;
35126;SDS011;21300;52.006;5.798;2023-03-01T10:18:03;8.20;;;4.65;;
35126;SDS011;21300;52.006;5.798;2023-03-01T10:20:52;9.07;;;5.03;;
35126;SDS011;21300;52.006;5.798;2023-03-01T10:23:18;9.25;;;4.80;;
35126;SDS011;21300;52.006;5.798;2023-03-01T10:25:47;8.63;;;3.92;;
35126;SDS011;21300;52.006;5.798;2023-03-01T10:30:42;12.25;;;6.22;;
35126;SDS011;21300;52.006;5.798;2023-03-01T10:35:40;9.68;;;6.68;;
35126;SDS011;21300;52.006;5.798;2023-03-01T10:38:07;9.68;;;6.15;;
35126;SDS011;21300;52.006;5.798;2023-03-01T10:40:34;14.65;;;7.15;;
35126;SDS011;21300;52.006;5.798;2023-03-01T10:43:01;11.80;;;7.43;;
35126;SDS011;21300;52.006;5.798;2023-03-01T10:45:35;11.35;;;7.55;;
35126;SDS011;21300;52.006;5.798;2023-03-01T10:50:34;13.15;;;6.55;;
35126;SDS011;21300;52.006;5.798;2023-03-01T10:53:03;13.90;;;7.43;;
35126;SDS011;21300;52.006;5.798;2023-03-01T11:00:45;10.80;;;6.57;;
35126;SDS011;21300;52.006;5.798;2023-03-01T11:03:12;8.57;;;5.55;;
35126;SDS011;21300;52.006;5.798;2023-03-01T11:05:50;10.75;;;5.35;;
35126;SDS011;21300;52.006;5.798;2023-03-01T11:08:26;9.35;;;5.20;;
35126;SDS011;21300;52.006;5.798;2023-03-01T11:11:03;8.20;;;5.20;;
35126;SDS011;21300;52.006;5.798;2023-03-01T11:13:29;8.32;;;5.05;;
35126;SDS011;21300;52.006;5.798;2023-03-01T11:15:59;7.50;;;4.88;;
35126;SDS011;21300;52.006;5.798;2023-03-01T11:18:26;9.82;;;5.05;;
35126;SDS011;21300;52.006;5.798;2023-03-01T11:20:55;8.35;;;5.28;;
35126;SDS011;21300;52.006;5.798;2023-03-01T11:23:23;7.57;;;4.28;;
35126;SDS011;21300;52.006;5.798;2023-03-01T11:25:51;8.25;;;4.25;;
35126;SDS011;21300;52.006;5.798;2023-03-01T11:28:21;6.20;;;4.50;;
35126;SDS011;21300;52.006;5.798;2023-03-01T11:36:13;7.78;;;4.50;;
35126;SDS011;21300;52.006;5.798;2023-03-01T11:38:49;6.10;;;4.03;;
35126;SDS011;21300;52.006;5.798;2023-03-01T11:41:19;6.75;;;4.47;;
35126;SDS011;21300;52.006;5.798;2023-03-01T11:43:56;7.95;;;4.50;;
35126;SDS011;21300;52.006;5.798;2023-03-01T12:03:01;7.82;;;4.30;;
35126;SDS011;21300;52.006;5.798;2023-03-01T12:06:05;7.20;;;4.50;;
35126;SDS011;21300;52.006;5.798;2023-03-01T12:08:37;7.18;;;4.40;;
35126;SDS011;21300;52.006;5.798;2023-03-01T12:17:13;7.70;;;4.55;;
35126;SDS011;21300;52.006;5.798;2023-03-01T12:22:44;6.50;;;4.38;;
35126;SDS011;21300;52.006;5.798;2023-03-01T12:28:43;8.50;;;4.60;;
35126;SDS011;21300;52.006;5.798;2023-03-01T12:39:45;9.93;;;4.30;;
35126;SDS011;21300;52.006;5.798;2023-03-01T12:50:51;5.65;;;4.28;;
35126;SDS011;21300;52.006;5.798;2023-03-01T12:53:22;9.18;;;4.93;;
35126;SDS011;21300;52.006;5.798;2023-03-01T12:55:50;8.93;;;4.70;;
35126;SDS011;21300;52.006;5.798;2023-03-01T13:04:10;7.95;;;5.00;;
35126;SDS011;21300;52.006;5.798;2023-03-01T13:09:51;6.45;;;4.93;;
35126;SDS011;21300;52.006;5.798;2023-03-01T13:15:42;9.43;;;4.85;;
35126;SDS011;21300;52.006;5.798;2023-03-01T13:18:03;10.50;;;5.00;;
35126;SDS011;21300;52.006;5.798;2023-03-01T13:30:59;6.93;;;4.75;;
35126;SDS011;21300;52.006;5.798;2023-03-01T13:35:52;10.90;;;4.80;;
35126;SDS011;21300;52.006;5.798;2023-03-01T13:38:38;6.18;;;4.45;;
35126;SDS011;21300;52.006;5.798;2023-03-01T13:41:13;8.00;;;5.35;;
35126;SDS011;21300;52.006;5.798;2023-03-01T13:43:43;7.57;;;4.80;;
35126;SDS011;21300;52.006;5.798;2023-03-01T13:46:14;7.72;;;4.82;;
35126;SDS011;21300;52.006;5.798;2023-03-01T13:48:47;7.85;;;4.78;;
35126;SDS011;21300;52.006;5.798;2023-03-01T13:51:19;7.10;;;4.90;;
35126;SDS011;21300;52.006;5.798;2023-03-01T13:53:50;8.95;;;5.53;;
35126;SDS011;21300;52.006;5.798;2023-03-01T13:56:21;8.65;;;5.32;;
35126;SDS011;21300;52.006;5.798;2023-03-01T14:01:21;9.15;;;5.28;;
35126;SDS011;21300;52.006;5.798;2023-03-01T14:03:52;7.05;;;4.72;;
35126;SDS011;21300;52.006;5.798;2023-03-01T14:06:22;7.40;;;4.82;;
35126;SDS011;21300;52.006;5.798;2023-03-01T14:08:50;9.75;;;6.03;;
35126;SDS011;21300;52.006;5.798;2023-03-01T14:11:24;7.80;;;5.05;;
35126;SDS011;21300;52.006;5.798;2023-03-01T14:13:58;8.80;;;4.97;;
35126;SDS011;21300;52.006;5.798;2023-03-01T14:16:38;7.65;;;4.53;;
35126;SDS011;21300;52.006;5.798;2023-03-01T14:19:25;8.77;;;4.88;;
35126;SDS011;21300;52.006;5.798;2023-03-01T14:22:26;12.65;;;4.82;;
35126;SDS011;21300;52.006;5.798;2023-03-01T14:27:19;7.63;;;4.35;;
35126;SDS011;21300;52.006;5.798;2023-03-01T14:29:53;8.32;;;4.68;;
35126;SDS011;21300;52.006;5.798;2023-03-01T14:32:28;9.82;;;4.40;;
35126;SDS011;21300;52.006;5.798;2023-03-01T14:34:55;8.60;;;4.57;;
35126;SDS011;21300;52.006;5.798;2023-03-01T14:37:32;9.80;;;4.50;;
35126;SDS011;21300;52.006;5.798;2023-03-01T14:39:59;8.27;;;3.90;;
35126;SDS011;21300;52.006;5.798;2023-03-01T14:42:28;8.82;;;5.10;;
35126;SDS011;21300;52.006;5.798;2023-03-01T14:44:56;7.85;;;4.30;;
35126;SDS011;21300;52.006;5.798;2023-03-01T14:47:25;9.85;;;4.70;;
35126;SDS011;21300;52.006;5.798;2023-03-01T14:49:56;8.23;;;4.03;;
35126;SDS011;21300;52.006;5.798;2023-03-01T14:55:17;6.30;;;4.13;;
35126;SDS011;21300;52.006;5.798;2023-03-01T15:00:19;7.20;;;4.03;;
35126;SDS011;21300;52.006;5.798;2023-03-01T15:02:50;6.97;;;4.35;;
35126;SDS011;21300;52.006;5.798;2023-03-01T15:05:18;7.72;;;4.68;;
35126;SDS011;21300;52.006;5.798;2023-03-01T15:07:50;8.25;;;4.30;;
35126;SDS011;21300;52.006;5.798;2023-03-01T15:10:19;6.32;;;3.75;;
35126;SDS011;21300;52.006;5.798;2023-03-01T15:12:52;8.38;;;4.47;;
35126;SDS011;21300;52.006;5.798;2023-03-01T15:15:19;7.65;;;4.22;;
35126;SDS011;21300;52.006;5.798;2023-03-01T15:18:03;7.13;;;4.40;;
35126;SDS011;21300;52.006;5.798;2023-03-01T15:20:49;5.78;;;4.00;;
35126;SDS011;21300;52.006;5.798;2023-03-01T15:23:20;8.93;;;4.18;;
35126;SDS011;21300;52.006;5.798;2023-03-01T15:25:52;6.20;;;3.03;;
35126;SDS011;21300;52.006;5.798;2023-03-01T15:28:22;5.43;;;3.53;;
35126;SDS011;21300;52.006;5.798;2023-03-01T15:30:57;6.60;;;3.70;;
35126;SDS011;21300;52.006;5.798;2023-03-01T15:33:42;7.18;;;4.22;;
35126;SDS011;21300;52.006;5.798;2023-03-01T15:38:57;6.53;;;3.42;;
35126;SDS011;21300;52.006;5.798;2023-03-01T15:41:32;5.85;;;3.33;;
35126;SDS011;21300;52.006;5.798;2023-03-01T15:44:26;5.60;;;3.38;;
35126;SDS011;21300;52.006;5.798;2023-03-01T15:46:53;4.57;;;2.85;;
35126;SDS011;21300;52.006;5.798;2023-03-01T15:49:35;5.75;;;3.25;;
35126;SDS011;21300;52.006;5.798;2023-03-01T15:52:01;5.65;;;2.75;;
35126;SDS011;21300;52.006;5.798;2023-03-01T15:54:27;7.90;;;3.75;;
35126;SDS011;21300;52.006;5.798;2023-03-01T15:56:54;6.68;;;3.38;;
35126;SDS011;21300;52.006;5.798;2023-03-01T15:59:20;5.95;;;3.13;;
35126;SDS011;21300;52.006;5.798;2023-03-01T16:01:47;5.80;;;3.00;;
35126;SDS011;21300;52.006;5.798;2023-03-01T16:04:14;4.97;;;2.95;;
35126;SDS011;21300;52.006;5.798;2023-03-01T16:06:53;4.40;;;1.92;;
35126;SDS011;21300;52.006;5.798;2023-03-01T16:09:22;5.30;;;2.90;;
35126;SDS011;21300;52.006;5.798;2023-03-01T16:11:50;7.10;;;3.20;;
35126;SDS011;21300;52.006;5.798;2023-03-01T16:14:17;7.22;;;3.20;;
35126;SDS011;21300;52.006;5.798;2023-03-01T16:16:43;8.65;;;3.42;;
35126;SDS011;21300;52.006;5.798;2023-03-01T16:19:10;4.13;;;2.72;;
35126;SDS011;21300;52.006;5.798;2023-03-01T16:21:36;6.10;;;2.63;;
35126;SDS011;21300;52.006;5.798;2023-03-01T16:24:02;6.03;;;3.38;;
35126;SDS011;21300;52.006;5.798;2023-03-01T16:26:28;6.82;;;3.05;;
35126;SDS011;21300;52.006;5.798;2023-03-01T16:28:54;4.28;;;2.80;;
35126;SDS011;21300;52.006;5.798;2023-03-01T16:31:21;5.10;;;3.03;;
35126;SDS011;21300;52.006;5.798;2023-03-01T16:33:47;8.02;;;3.50;;
35126;SDS011;21300;52.006;5.798;2023-03-01T16:36:15;6.40;;;3.28;;
35126;SDS011;21300;52.006;5.798;2023-03-01T16:38:43;6.25;;;3.03;;
35126;SDS011;21300;52.006;5.798;2023-03-01T16:41:11;7.00;;;3.67;;
35126;SDS011;21300;52.006;5.798;2023-03-01T16:43:38;6.32;;;2.90;;
35126;SDS011;21300;52.006;5.798;2023-03-01T16:46:15;7.68;;;3.60;;
35126;SDS011;21300;52.006;5.798;2023-03-01T16:48:42;5.47;;;3.10;;
35126;SDS011;21300;52.006;5.798;2023-03-01T16:51:08;5.97;;;3.10;;